KAL879 RKSS-RKPC
Flight info
| Callsign | KAL879 |
|---|---|
| Flight time | 0h 52m |
| Altitude | 26000 |
| Route | BULTI Y711 DOTOL |
| Aircraft | B738/M-SDE2E3FGHIRWXY/LB1 |
Departure
| Time | 2025-09-05 13:45 |
|---|---|
| Airport | Gimpo International Airport (RKSS) |
Arrival
| Time | 2025-09-05 14:37 |
|---|---|
| Airport | Jeju International Airport (RKPC) |
| Time | Latitude | Longitude | Altitude | Speed | Heading |
|---|---|---|---|---|---|
| 2025-09-05 13:16 | 37.55782 | 126.80250 | 66 ft | 0 kts | 49° |
| 2025-09-05 13:26 | 37.55780 | 126.80248 | 66 ft | 1 kts | 48° |
| 2025-09-05 13:27 | 37.55753 | 126.80216 | 61 ft | 3 kts | 34° |
| 2025-09-05 13:28 | 37.55704 | 126.80203 | 56 ft | 1 kts | 319° |
| 2025-09-05 13:30 | 37.55712 | 126.80193 | 58 ft | 4 kts | 314° |
| 2025-09-05 13:31 | 37.55774 | 126.80112 | 63 ft | 7 kts | 314° |
| 2025-09-05 13:32 | 37.55874 | 126.79990 | 64 ft | 6 kts | 314° |
| 2025-09-05 13:32 | 37.55907 | 126.79859 | 66 ft | 9 kts | 279° |
| 2025-09-05 13:33 | 37.55928 | 126.79688 | 66 ft | 10 kts | 278° |
| 2025-09-05 13:33 | 37.56000 | 126.79469 | 60 ft | 16 kts | 315° |
| 2025-09-05 13:34 | 37.56167 | 126.79259 | 59 ft | 18 kts | 314° |
| 2025-09-05 13:34 | 37.56263 | 126.79137 | 64 ft | 22 kts | 315° |
| 2025-09-05 13:34 | 37.56512 | 126.78824 | 62 ft | 27 kts | 315° |
| 2025-09-05 13:35 | 37.56795 | 126.78467 | 63 ft | 28 kts | 315° |
| 2025-09-05 13:36 | 37.57091 | 126.78095 | 61 ft | 15 kts | 315° |
| 2025-09-05 13:36 | 37.57141 | 126.77944 | 57 ft | 12 kts | 231° |
| 2025-09-05 13:37 | 37.57024 | 126.77884 | 55 ft | 7 kts | 134° |
| 2025-09-05 13:37 | 37.57012 | 126.77900 | 55 ft | 0 kts | 135° |
| 2025-09-05 13:44 | 37.55931 | 126.79251 | 174 ft | 167 kts | 136° |
| 2025-09-05 13:44 | 37.54118 | 126.81441 | 1929 ft | 174 kts | 141° |
| 2025-09-05 13:45 | 37.52451 | 126.83462 | 3417 ft | 186 kts | 137° |
| 2025-09-05 13:45 | 37.50445 | 126.86055 | 3875 ft | 235 kts | 140° |
| 2025-09-05 13:46 | 37.47317 | 126.87765 | 4555 ft | 263 kts | 165° |
| 2025-09-05 13:46 | 37.45551 | 126.88452 | 5307 ft | 267 kts | 165° |
| 2025-09-05 13:46 | 37.41977 | 126.89860 | 5974 ft | 270 kts | 165° |
| 2025-09-05 13:47 | 37.38383 | 126.91292 | 5990 ft | 272 kts | 165° |
| 2025-09-05 13:48 | 37.33418 | 126.94854 | 5984 ft | 280 kts | 147° |
| 2025-09-05 13:48 | 37.30257 | 126.97681 | 6034 ft | 275 kts | 147° |
| 2025-09-05 13:48 | 37.28700 | 126.99036 | 6407 ft | 272 kts | 148° |
| 2025-09-05 13:49 | 37.25515 | 127.01774 | 7050 ft | 281 kts | 148° |
| 2025-09-05 13:49 | 37.21893 | 127.02983 | 7694 ft | 272 kts | 191° |
| 2025-09-05 13:50 | 37.18204 | 127.01634 | 7976 ft | 280 kts | 199° |
| 2025-09-05 13:50 | 37.14517 | 127.00168 | 7985 ft | 275 kts | 198° |
| 2025-09-05 13:51 | 37.10907 | 126.98776 | 8871 ft | 277 kts | 198° |
| 2025-09-05 13:52 | 37.05239 | 126.96609 | 10977 ft | 287 kts | 198° |
| 2025-09-05 13:52 | 37.01372 | 126.95133 | 12346 ft | 294 kts | 198° |
| 2025-09-05 13:53 | 36.97420 | 126.93626 | 13709 ft | 300 kts | 199° |
| 2025-09-05 13:53 | 36.93359 | 126.92079 | 14626 ft | 317 kts | 199° |
| 2025-09-05 13:54 | 36.88955 | 126.90140 | 14866 ft | 353 kts | 202° |
| 2025-09-05 13:54 | 36.86598 | 126.89041 | 14986 ft | 369 kts | 202° |
| 2025-09-05 13:54 | 36.81698 | 126.86779 | 15809 ft | 378 kts | 202° |
| 2025-09-05 13:55 | 36.76720 | 126.84508 | 16753 ft | 384 kts | 202° |
| 2025-09-05 13:56 | 36.68804 | 126.82494 | 18002 ft | 400 kts | 180° |
| 2025-09-05 13:56 | 36.63189 | 126.82820 | 18738 ft | 407 kts | 180° |
| 2025-09-05 13:57 | 36.57546 | 126.83070 | 19490 ft | 410 kts | 180° |
| 2025-09-05 13:57 | 36.51810 | 126.83284 | 20204 ft | 414 kts | 180° |
| 2025-09-05 13:57 | 36.48920 | 126.83391 | 20556 ft | 416 kts | 180° |
| 2025-09-05 13:58 | 36.43107 | 126.83609 | 21253 ft | 420 kts | 180° |
| 2025-09-05 13:58 | 36.37247 | 126.83723 | 21920 ft | 422 kts | 185° |
| 2025-09-05 13:59 | 36.31374 | 126.83083 | 22562 ft | 425 kts | 187° |
| 2025-09-05 14:00 | 36.22531 | 126.82022 | 23479 ft | 430 kts | 186° |
| 2025-09-05 14:00 | 36.16514 | 126.81369 | 23711 ft | 440 kts | 186° |
| 2025-09-05 14:01 | 36.10313 | 126.80698 | 23785 ft | 452 kts | 186° |
| 2025-09-05 14:01 | 36.03980 | 126.80011 | 23893 ft | 460 kts | 186° |
| 2025-09-05 14:02 | 35.97591 | 126.79319 | 24218 ft | 461 kts | 186° |
| 2025-09-05 14:02 | 35.94427 | 126.78977 | 24377 ft | 462 kts | 186° |
| 2025-09-05 14:02 | 35.88003 | 126.78282 | 24659 ft | 464 kts | 186° |
| 2025-09-05 14:03 | 35.81553 | 126.77584 | 24936 ft | 466 kts | 186° |
| 2025-09-05 14:04 | 35.62037 | 126.75476 | 25722 ft | 472 kts | 185° |
| 2025-09-05 14:06 | 35.35764 | 126.72658 | 25968 ft | 476 kts | 185° |
| 2025-09-05 14:09 | 35.06088 | 126.69497 | 25966 ft | 474 kts | 185° |
| 2025-09-05 14:10 | 34.84196 | 126.67179 | 25867 ft | 474 kts | 185° |
| 2025-09-05 14:12 | 34.68555 | 126.65531 | 24055 ft | 430 kts | 185° |
| 2025-09-05 14:12 | 34.62696 | 126.64915 | 23334 ft | 415 kts | 185° |
| 2025-09-05 14:13 | 34.56990 | 126.64315 | 22259 ft | 409 kts | 185° |
| 2025-09-05 14:13 | 34.51348 | 126.63724 | 21195 ft | 404 kts | 186° |
| 2025-09-05 14:14 | 34.45778 | 126.63140 | 20167 ft | 399 kts | 186° |
| 2025-09-05 14:14 | 34.43018 | 126.62852 | 19662 ft | 397 kts | 186° |
| 2025-09-05 14:14 | 34.37538 | 126.62280 | 18689 ft | 393 kts | 186° |
| 2025-09-05 14:15 | 34.32108 | 126.61713 | 17643 ft | 390 kts | 186° |
| 2025-09-05 14:16 | 34.24099 | 126.60877 | 16154 ft | 381 kts | 187° |
| 2025-09-05 14:16 | 34.18990 | 126.60352 | 15956 ft | 357 kts | 187° |
| 2025-09-05 14:17 | 34.14098 | 126.59869 | 15947 ft | 344 kts | 184° |
| 2025-09-05 14:17 | 34.09515 | 126.59488 | 15907 ft | 317 kts | 188° |
| 2025-09-05 14:17 | 34.07343 | 126.59221 | 15741 ft | 310 kts | 188° |
| 2025-09-05 14:18 | 34.03176 | 126.58736 | 15404 ft | 297 kts | 187° |
| 2025-09-05 14:18 | 33.99200 | 126.57821 | 14860 ft | 288 kts | 211° |
| 2025-09-05 14:19 | 33.96071 | 126.54921 | 14321 ft | 283 kts | 220° |
| 2025-09-05 14:20 | 33.91489 | 126.50427 | 13350 ft | 283 kts | 220° |
| 2025-09-05 14:20 | 33.88412 | 126.47444 | 12668 ft | 284 kts | 219° |
| 2025-09-05 14:21 | 33.85333 | 126.44463 | 11987 ft | 284 kts | 219° |
| 2025-09-05 14:21 | 33.82247 | 126.41479 | 11270 ft | 286 kts | 219° |
| 2025-09-05 14:21 | 33.80687 | 126.39972 | 10894 ft | 288 kts | 219° |
| 2025-09-05 14:22 | 33.77865 | 126.37247 | 10207 ft | 281 kts | 219° |
| 2025-09-05 14:22 | 33.74868 | 126.34355 | 9392 ft | 274 kts | 219° |
| 2025-09-05 14:23 | 33.73134 | 126.30472 | 8523 ft | 269 kts | 264° |
| 2025-09-05 14:24 | 33.73883 | 126.23859 | 7316 ft | 264 kts | 277° |
| 2025-09-05 14:24 | 33.73853 | 126.19642 | 6979 ft | 242 kts | 259° |
| 2025-09-05 14:25 | 33.73342 | 126.15672 | 6990 ft | 242 kts | 260° |
| 2025-09-05 14:25 | 33.72692 | 126.11676 | 6973 ft | 242 kts | 246° |
| 2025-09-05 14:25 | 33.71988 | 126.09842 | 6977 ft | 242 kts | 243° |
| 2025-09-05 14:26 | 33.70470 | 126.06253 | 6928 ft | 242 kts | 231° |
| 2025-09-05 14:26 | 33.67379 | 126.05126 | 6234 ft | 246 kts | 165° |
| 2025-09-05 14:27 | 33.64550 | 126.06989 | 5611 ft | 223 kts | 148° |
| 2025-09-05 14:28 | 33.60918 | 126.09969 | 4577 ft | 201 kts | 147° |
| 2025-09-05 14:28 | 33.58677 | 126.11779 | 4022 ft | 182 kts | 148° |
| 2025-09-05 14:29 | 33.56675 | 126.13384 | 3999 ft | 177 kts | 148° |
| 2025-09-05 14:29 | 33.55538 | 126.14288 | 4010 ft | 205 kts | 148° |
| 2025-09-05 14:29 | 33.53146 | 126.16195 | 3977 ft | 207 kts | 148° |
| 2025-09-05 14:30 | 33.50748 | 126.18102 | 3979 ft | 207 kts | 148° |
| 2025-09-05 14:30 | 33.48347 | 126.20007 | 3704 ft | 209 kts | 148° |
| 2025-09-05 14:31 | 33.45989 | 126.21898 | 3370 ft | 199 kts | 142° |
| 2025-09-05 14:32 | 33.43831 | 126.26267 | 3057 ft | 196 kts | 121° |
| 2025-09-05 14:32 | 33.42600 | 126.28987 | 2886 ft | 173 kts | 120° |
| 2025-09-05 14:33 | 33.42569 | 126.31724 | 2844 ft | 174 kts | 65° |
| 2025-09-05 14:33 | 33.43608 | 126.34291 | 2426 ft | 169 kts | 64° |
| 2025-09-05 14:33 | 33.44196 | 126.35501 | 2204 ft | 167 kts | 61° |
| 2025-09-05 14:34 | 33.45383 | 126.37836 | 1793 ft | 164 kts | 60° |
| 2025-09-05 14:34 | 33.46586 | 126.40190 | 1369 ft | 165 kts | 62° |
| 2025-09-05 14:35 | 33.47841 | 126.42605 | 990 ft | 173 kts | 59° |
| 2025-09-05 14:36 | 33.49565 | 126.46017 | 333 ft | 145 kts | 59° |
| 2025-09-05 14:36 | 33.50620 | 126.48075 | 134 ft | 118 kts | 58° |
| 2025-09-05 14:37 | 33.51016 | 126.48929 | 134 ft | 18 kts | 82° |
| 2025-09-05 14:37 | 33.51023 | 126.49028 | 134 ft | 4 kts | 88° |
| 2025-09-05 14:37 | 33.51024 | 126.49076 | 134 ft | 0 kts | 94° |
| 2025-09-05 14:38 | 33.51022 | 126.49113 | 134 ft | 14 kts | 90° |
| 2025-09-05 14:38 | 33.51107 | 126.49433 | 127 ft | 9 kts | 113° |
| 2025-09-05 14:39 | 33.50903 | 126.49379 | 133 ft | 15 kts | 202° |